sensor_id;sensor_type;location;lat;lon;timestamp;P1;durP1;ratioP1;P2;durP2;ratioP2
66707;SDS011;53622;0.000;0.000;2022-07-23T00:01:34;5.95;;;4.90;;
66707;SDS011;53622;0.000;0.000;2022-07-23T00:04:03;5.35;;;4.85;;
66707;SDS011;53622;0.000;0.000;2022-07-23T00:06:33;5.60;;;4.70;;
66707;SDS011;53622;0.000;0.000;2022-07-23T00:09:02;6.13;;;4.85;;
66707;SDS011;53622;0.000;0.000;2022-07-23T00:11:31;5.93;;;4.75;;
66707;SDS011;53622;0.000;0.000;2022-07-23T00:14:01;5.88;;;4.97;;
66707;SDS011;53622;0.000;0.000;2022-07-23T00:16:31;5.88;;;4.60;;
66707;SDS011;53622;0.000;0.000;2022-07-23T00:19:01;6.45;;;4.93;;
66707;SDS011;53622;0.000;0.000;2022-07-23T00:21:31;5.00;;;4.50;;
66707;SDS011;53622;0.000;0.000;2022-07-23T00:24:00;6.88;;;5.15;;
66707;SDS011;53622;0.000;0.000;2022-07-23T00:26:30;5.90;;;4.95;;
66707;SDS011;53622;0.000;0.000;2022-07-23T00:28:59;6.30;;;5.03;;
66707;SDS011;53622;0.000;0.000;2022-07-23T00:31:29;5.95;;;4.95;;
66707;SDS011;53622;0.000;0.000;2022-07-23T00:34:00;6.60;;;4.95;;
66707;SDS011;53622;0.000;0.000;2022-07-23T00:36:29;5.25;;;4.65;;
66707;SDS011;53622;0.000;0.000;2022-07-23T00:38:59;6.15;;;5.13;;
66707;SDS011;53622;0.000;0.000;2022-07-23T00:41:29;5.55;;;4.72;;
66707;SDS011;53622;0.000;0.000;2022-07-23T00:44:13;5.18;;;4.78;;
66707;SDS011;53622;0.000;0.000;2022-07-23T00:46:47;5.28;;;4.75;;
66707;SDS011;53622;0.000;0.000;2022-07-23T00:49:21;6.13;;;5.53;;
66707;SDS011;53622;0.000;0.000;2022-07-23T00:51:52;5.32;;;4.82;;
66707;SDS011;53622;0.000;0.000;2022-07-23T00:54:22;6.95;;;5.10;;
66707;SDS011;53622;0.000;0.000;2022-07-23T00:56:53;5.63;;;4.80;;
66707;SDS011;53622;0.000;0.000;2022-07-23T00:59:22;6.40;;;5.13;;
66707;SDS011;53622;0.000;0.000;2022-07-23T01:01:51;7.13;;;5.30;;
66707;SDS011;53622;0.000;0.000;2022-07-23T01:04:22;8.38;;;5.00;;
66707;SDS011;53622;0.000;0.000;2022-07-23T01:06:51;5.45;;;4.70;;
66707;SDS011;53622;0.000;0.000;2022-07-23T01:09:21;7.03;;;5.20;;
66707;SDS011;53622;0.000;0.000;2022-07-23T01:11:50;6.40;;;4.93;;
66707;SDS011;53622;0.000;0.000;2022-07-23T01:14:22;9.32;;;4.90;;
66707;SDS011;53622;0.000;0.000;2022-07-23T01:16:52;6.13;;;5.07;;
66707;SDS011;53622;0.000;0.000;2022-07-23T01:19:23;6.00;;;5.40;;
66707;SDS011;53622;0.000;0.000;2022-07-23T01:21:52;6.10;;;5.38;;
66707;SDS011;53622;0.000;0.000;2022-07-23T01:24:24;7.45;;;5.78;;
66707;SDS011;53622;0.000;0.000;2022-07-23T01:27:12;6.97;;;5.90;;
66707;SDS011;53622;0.000;0.000;2022-07-23T01:29:42;7.43;;;5.65;;
66707;SDS011;53622;0.000;0.000;2022-07-23T01:32:16;6.38;;;5.78;;
66707;SDS011;53622;0.000;0.000;2022-07-23T01:34:46;8.80;;;5.90;;
66707;SDS011;53622;0.000;0.000;2022-07-23T01:37:15;7.55;;;6.07;;
66707;SDS011;53622;0.000;0.000;2022-07-23T01:39:46;7.05;;;5.50;;
66707;SDS011;53622;0.000;0.000;2022-07-23T01:42:16;7.15;;;5.65;;
66707;SDS011;53622;0.000;0.000;2022-07-23T01:44:46;7.00;;;6.07;;
66707;SDS011;53622;0.000;0.000;2022-07-23T01:47:19;6.40;;;5.70;;
66707;SDS011;53622;0.000;0.000;2022-07-23T01:49:52;6.75;;;5.72;;
66707;SDS011;53622;0.000;0.000;2022-07-23T01:52:39;6.88;;;5.85;;
66707;SDS011;53622;0.000;0.000;2022-07-23T01:55:10;7.78;;;5.57;;
66707;SDS011;53622;0.000;0.000;2022-07-23T01:57:47;10.25;;;6.40;;
66707;SDS011;53622;0.000;0.000;2022-07-23T02:00:20;7.00;;;5.78;;
66707;SDS011;53622;0.000;0.000;2022-07-23T02:02:51;7.45;;;6.72;;
66707;SDS011;53622;0.000;0.000;2022-07-23T02:05:21;7.18;;;5.97;;
66707;SDS011;53622;0.000;0.000;2022-07-23T02:07:51;7.78;;;5.78;;
66707;SDS011;53622;0.000;0.000;2022-07-23T02:10:23;6.35;;;5.57;;
66707;SDS011;53622;0.000;0.000;2022-07-23T02:12:53;7.07;;;5.60;;
66707;SDS011;53622;0.000;0.000;2022-07-23T02:15:22;7.25;;;6.03;;
66707;SDS011;53622;0.000;0.000;2022-07-23T02:17:51;5.82;;;5.32;;
66707;SDS011;53622;0.000;0.000;2022-07-23T02:20:21;6.68;;;5.45;;
66707;SDS011;53622;0.000;0.000;2022-07-23T02:22:50;7.78;;;6.05;;
66707;SDS011;53622;0.000;0.000;2022-07-23T02:25:22;6.57;;;5.75;;
66707;SDS011;53622;0.000;0.000;2022-07-23T02:27:57;8.23;;;6.30;;
66707;SDS011;53622;0.000;0.000;2022-07-23T02:30:26;7.13;;;5.93;;
66707;SDS011;53622;0.000;0.000;2022-07-23T02:32:55;7.85;;;5.93;;
66707;SDS011;53622;0.000;0.000;2022-07-23T02:35:25;7.35;;;5.78;;
66707;SDS011;53622;0.000;0.000;2022-07-23T02:37:57;7.38;;;5.78;;
66707;SDS011;53622;0.000;0.000;2022-07-23T02:40:28;6.43;;;5.22;;
66707;SDS011;53622;0.000;0.000;2022-07-23T02:42:57;6.95;;;6.07;;
66707;SDS011;53622;0.000;0.000;2022-07-23T02:45:28;7.75;;;6.13;;
66707;SDS011;53622;0.000;0.000;2022-07-23T02:47:57;7.00;;;5.40;;
66707;SDS011;53622;0.000;0.000;2022-07-23T02:50:27;7.47;;;6.28;;
66707;SDS011;53622;0.000;0.000;2022-07-23T02:52:58;8.65;;;5.90;;
66707;SDS011;53622;0.000;0.000;2022-07-23T02:55:28;7.38;;;6.18;;
66707;SDS011;53622;0.000;0.000;2022-07-23T02:58:01;6.53;;;5.85;;
66707;SDS011;53622;0.000;0.000;2022-07-23T03:00:30;7.47;;;6.20;;
66707;SDS011;53622;0.000;0.000;2022-07-23T03:03:00;6.57;;;5.97;;
66707;SDS011;53622;0.000;0.000;2022-07-23T03:05:30;7.55;;;6.00;;
66707;SDS011;53622;0.000;0.000;2022-07-23T03:07:59;8.35;;;5.93;;
66707;SDS011;53622;0.000;0.000;2022-07-23T03:10:30;8.38;;;6.20;;
66707;SDS011;53622;0.000;0.000;2022-07-23T03:12:59;6.78;;;6.18;;
66707;SDS011;53622;0.000;0.000;2022-07-23T03:15:29;7.35;;;5.82;;
66707;SDS011;53622;0.000;0.000;2022-07-23T03:17:58;7.65;;;6.15;;
66707;SDS011;53622;0.000;0.000;2022-07-23T03:20:29;8.68;;;6.30;;
66707;SDS011;53622;0.000;0.000;2022-07-23T03:22:58;7.20;;;6.15;;
66707;SDS011;53622;0.000;0.000;2022-07-23T03:25:30;7.13;;;6.43;;
66707;SDS011;53622;0.000;0.000;2022-07-23T03:27:59;7.10;;;5.85;;
66707;SDS011;53622;0.000;0.000;2022-07-23T03:30:29;8.13;;;6.05;;
66707;SDS011;53622;0.000;0.000;2022-07-23T03:32:58;7.65;;;5.97;;
66707;SDS011;53622;0.000;0.000;2022-07-23T03:35:28;8.20;;;6.43;;
66707;SDS011;53622;0.000;0.000;2022-07-23T03:38:27;7.18;;;6.47;;
66707;SDS011;53622;0.000;0.000;2022-07-23T03:40:57;7.68;;;6.22;;
66707;SDS011;53622;0.000;0.000;2022-07-23T03:43:29;7.82;;;6.55;;
66707;SDS011;53622;0.000;0.000;2022-07-23T03:45:58;7.00;;;6.30;;
66707;SDS011;53622;0.000;0.000;2022-07-23T03:48:28;8.60;;;6.50;;
66707;SDS011;53622;0.000;0.000;2022-07-23T03:50:58;7.20;;;6.50;;
66707;SDS011;53622;0.000;0.000;2022-07-23T03:53:27;7.32;;;6.72;;
66707;SDS011;53622;0.000;0.000;2022-07-23T03:55:58;8.02;;;7.00;;
66707;SDS011;53622;0.000;0.000;2022-07-23T03:58:29;10.75;;;6.75;;
66707;SDS011;53622;0.000;0.000;2022-07-23T04:00:59;7.32;;;6.63;;
66707;SDS011;53622;0.000;0.000;2022-07-23T04:03:29;11.05;;;7.68;;
66707;SDS011;53622;0.000;0.000;2022-07-23T04:05:58;9.32;;;7.28;;
66707;SDS011;53622;0.000;0.000;2022-07-23T04:08:29;9.48;;;7.82;;
66707;SDS011;53622;0.000;0.000;2022-07-23T04:11:01;8.32;;;7.53;;
66707;SDS011;53622;0.000;0.000;2022-07-23T04:13:30;10.45;;;8.52;;
66707;SDS011;53622;0.000;0.000;2022-07-23T04:16:02;9.07;;;7.45;;
66707;SDS011;53622;0.000;0.000;2022-07-23T04:18:32;9.23;;;7.90;;
66707;SDS011;53622;0.000;0.000;2022-07-23T04:21:16;8.85;;;7.43;;
66707;SDS011;53622;0.000;0.000;2022-07-23T04:23:45;9.13;;;7.22;;
66707;SDS011;53622;0.000;0.000;2022-07-23T04:26:16;8.60;;;7.57;;
66707;SDS011;53622;0.000;0.000;2022-07-23T04:28:46;10.00;;;7.38;;
66707;SDS011;53622;0.000;0.000;2022-07-23T04:31:16;9.82;;;7.43;;
66707;SDS011;53622;0.000;0.000;2022-07-23T04:33:45;8.27;;;7.47;;
66707;SDS011;53622;0.000;0.000;2022-07-23T04:36:14;8.15;;;7.35;;
66707;SDS011;53622;0.000;0.000;2022-07-23T04:38:44;8.43;;;7.47;;
66707;SDS011;53622;0.000;0.000;2022-07-23T04:41:21;8.82;;;8.00;;
66707;SDS011;53622;0.000;0.000;2022-07-23T04:43:53;8.10;;;7.30;;
66707;SDS011;53622;0.000;0.000;2022-07-23T04:46:23;9.68;;;7.57;;
66707;SDS011;53622;0.000;0.000;2022-07-23T04:48:53;9.10;;;8.07;;
66707;SDS011;53622;0.000;0.000;2022-07-23T04:51:23;11.68;;;7.43;;
66707;SDS011;53622;0.000;0.000;2022-07-23T04:53:52;8.38;;;7.45;;
66707;SDS011;53622;0.000;0.000;2022-07-23T04:56:23;8.88;;;7.68;;
66707;SDS011;53622;0.000;0.000;2022-07-23T04:58:52;8.93;;;8.02;;
66707;SDS011;53622;0.000;0.000;2022-07-23T05:01:21;8.70;;;7.90;;
66707;SDS011;53622;0.000;0.000;2022-07-23T05:03:51;8.75;;;7.95;;
66707;SDS011;53622;0.000;0.000;2022-07-23T05:06:21;10.40;;;8.20;;
66707;SDS011;53622;0.000;0.000;2022-07-23T05:08:50;8.88;;;7.97;;
66707;SDS011;53622;0.000;0.000;2022-07-23T05:11:19;9.57;;;7.93;;
66707;SDS011;53622;0.000;0.000;2022-07-23T05:13:55;8.88;;;8.00;;
66707;SDS011;53622;0.000;0.000;2022-07-23T05:16:25;9.52;;;8.60;;
66707;SDS011;53622;0.000;0.000;2022-07-23T05:18:59;8.55;;;7.75;;
66707;SDS011;53622;0.000;0.000;2022-07-23T05:21:32;9.85;;;8.60;;
66707;SDS011;53622;0.000;0.000;2022-07-23T05:24:02;9.60;;;8.45;;
66707;SDS011;53622;0.000;0.000;2022-07-23T05:26:31;9.75;;;8.73;;
66707;SDS011;53622;0.000;0.000;2022-07-23T05:29:04;13.77;;;8.70;;
66707;SDS011;53622;0.000;0.000;2022-07-23T05:31:34;8.48;;;7.75;;
66707;SDS011;53622;0.000;0.000;2022-07-23T05:34:05;9.40;;;8.40;;
66707;SDS011;53622;0.000;0.000;2022-07-23T05:36:35;8.98;;;8.10;;
66707;SDS011;53622;0.000;0.000;2022-07-23T05:39:05;8.82;;;8.00;;
66707;SDS011;53622;0.000;0.000;2022-07-23T05:41:36;9.15;;;8.25;;
66707;SDS011;53622;0.000;0.000;2022-07-23T05:44:07;8.88;;;7.97;;
66707;SDS011;53622;0.000;0.000;2022-07-23T05:46:39;8.88;;;8.07;;
66707;SDS011;53622;0.000;0.000;2022-07-23T05:49:13;8.80;;;7.90;;
66707;SDS011;53622;0.000;0.000;2022-07-23T05:52:03;9.02;;;8.18;;
66707;SDS011;53622;0.000;0.000;2022-07-23T05:54:56;9.75;;;8.60;;
66707;SDS011;53622;0.000;0.000;2022-07-23T05:57:25;9.52;;;8.02;;
66707;SDS011;53622;0.000;0.000;2022-07-23T05:59:56;8.57;;;7.68;;
66707;SDS011;53622;0.000;0.000;2022-07-23T06:02:26;9.00;;;8.18;;
66707;SDS011;53622;0.000;0.000;2022-07-23T06:04:55;10.18;;;8.50;;
66707;SDS011;53622;0.000;0.000;2022-07-23T06:07:30;9.43;;;8.48;;
66707;SDS011;53622;0.000;0.000;2022-07-23T06:10:00;8.90;;;8.00;;
66707;SDS011;53622;0.000;0.000;2022-07-23T06:12:29;9.40;;;8.40;;
66707;SDS011;53622;0.000;0.000;2022-07-23T06:15:00;9.70;;;8.38;;
66707;SDS011;53622;0.000;0.000;2022-07-23T06:17:31;10.43;;;9.35;;
66707;SDS011;53622;0.000;0.000;2022-07-23T06:20:02;9.65;;;8.73;;
66707;SDS011;53622;0.000;0.000;2022-07-23T06:22:32;9.50;;;8.32;;
66707;SDS011;53622;0.000;0.000;2022-07-23T06:25:01;9.98;;;8.98;;
66707;SDS011;53622;0.000;0.000;2022-07-23T06:27:38;11.98;;;9.00;;
66707;SDS011;53622;0.000;0.000;2022-07-23T06:30:10;10.05;;;9.02;;
66707;SDS011;53622;0.000;0.000;2022-07-23T06:32:43;9.57;;;8.65;;
66707;SDS011;53622;0.000;0.000;2022-07-23T06:35:14;11.07;;;8.88;;
66707;SDS011;53622;0.000;0.000;2022-07-23T06:37:46;9.63;;;8.65;;
66707;SDS011;53622;0.000;0.000;2022-07-23T06:40:16;10.55;;;9.57;;
66707;SDS011;53622;0.000;0.000;2022-07-23T06:42:45;10.40;;;9.30;;
66707;SDS011;53622;0.000;0.000;2022-07-23T06:45:22;10.13;;;9.23;;
66707;SDS011;53622;0.000;0.000;2022-07-23T06:47:52;10.15;;;9.00;;
66707;SDS011;53622;0.000;0.000;2022-07-23T06:50:22;10.70;;;8.75;;
66707;SDS011;53622;0.000;0.000;2022-07-23T06:52:52;11.35;;;9.35;;
66707;SDS011;53622;0.000;0.000;2022-07-23T06:55:22;12.65;;;8.50;;
66707;SDS011;53622;0.000;0.000;2022-07-23T06:57:52;12.23;;;8.75;;
66707;SDS011;53622;0.000;0.000;2022-07-23T07:00:23;9.45;;;8.55;;
66707;SDS011;53622;0.000;0.000;2022-07-23T07:02:54;8.90;;;8.02;;
66707;SDS011;53622;0.000;0.000;2022-07-23T07:05:24;8.77;;;7.68;;
66707;SDS011;53622;0.000;0.000;2022-07-23T07:07:54;11.68;;;8.27;;
66707;SDS011;53622;0.000;0.000;2022-07-23T07:10:24;9.02;;;8.23;;
66707;SDS011;53622;0.000;0.000;2022-07-23T07:12:54;8.73;;;8.02;;
66707;SDS011;53622;0.000;0.000;2022-07-23T07:15:25;8.88;;;8.18;;
66707;SDS011;53622;0.000;0.000;2022-07-23T07:17:55;9.52;;;8.63;;
66707;SDS011;53622;0.000;0.000;2022-07-23T07:20:25;8.77;;;7.97;;
66707;SDS011;53622;0.000;0.000;2022-07-23T07:22:54;8.95;;;8.13;;
66707;SDS011;53622;0.000;0.000;2022-07-23T07:25:24;9.23;;;8.27;;
66707;SDS011;53622;0.000;0.000;2022-07-23T07:27:53;8.48;;;7.72;;
66707;SDS011;53622;0.000;0.000;2022-07-23T07:30:22;12.25;;;8.43;;
66707;SDS011;53622;0.000;0.000;2022-07-23T07:33:00;14.50;;;8.75;;
66707;SDS011;53622;0.000;0.000;2022-07-23T07:35:29;9.23;;;7.85;;
66707;SDS011;53622;0.000;0.000;2022-07-23T07:37:59;10.25;;;7.82;;
66707;SDS011;53622;0.000;0.000;2022-07-23T07:40:29;8.90;;;8.02;;
66707;SDS011;53622;0.000;0.000;2022-07-23T07:43:00;11.90;;;8.68;;
66707;SDS011;53622;0.000;0.000;2022-07-23T07:45:33;8.93;;;7.90;;
66707;SDS011;53622;0.000;0.000;2022-07-23T07:48:03;10.23;;;7.50;;
66707;SDS011;53622;0.000;0.000;2022-07-23T07:50:33;9.25;;;8.10;;
66707;SDS011;53622;0.000;0.000;2022-07-23T07:53:03;9.13;;;8.32;;
66707;SDS011;53622;0.000;0.000;2022-07-23T07:55:33;8.80;;;7.95;;
66707;SDS011;53622;0.000;0.000;2022-07-23T07:58:04;13.25;;;8.82;;
66707;SDS011;53622;0.000;0.000;2022-07-23T08:00:36;15.02;;;8.20;;
66707;SDS011;53622;0.000;0.000;2022-07-23T08:03:06;10.10;;;7.82;;
66707;SDS011;53622;0.000;0.000;2022-07-23T08:05:37;9.48;;;8.35;;
66707;SDS011;53622;0.000;0.000;2022-07-23T08:08:07;13.60;;;7.93;;
66707;SDS011;53622;0.000;0.000;2022-07-23T08:10:43;10.02;;;7.70;;
66707;SDS011;53622;0.000;0.000;2022-07-23T08:13:15;9.20;;;8.07;;
66707;SDS011;53622;0.000;0.000;2022-07-23T08:15:48;8.80;;;7.90;;
66707;SDS011;53622;0.000;0.000;2022-07-23T08:18:20;9.80;;;7.78;;
66707;SDS011;53622;0.000;0.000;2022-07-23T08:20:50;10.55;;;8.02;;
66707;SDS011;53622;0.000;0.000;2022-07-23T08:23:20;8.85;;;7.68;;
66707;SDS011;53622;0.000;0.000;2022-07-23T08:25:55;9.15;;;7.50;;
66707;SDS011;53622;0.000;0.000;2022-07-23T08:28:26;9.25;;;7.55;;
66707;SDS011;53622;0.000;0.000;2022-07-23T08:30:57;8.52;;;7.10;;
66707;SDS011;53622;0.000;0.000;2022-07-23T08:33:27;8.10;;;7.18;;
66707;SDS011;53622;0.000;0.000;2022-07-23T08:36:01;8.85;;;7.60;;
66707;SDS011;53622;0.000;0.000;2022-07-23T08:38:32;8.20;;;7.40;;
66707;SDS011;53622;0.000;0.000;2022-07-23T08:41:02;9.23;;;7.40;;
66707;SDS011;53622;0.000;0.000;2022-07-23T08:43:33;7.78;;;7.15;;
66707;SDS011;53622;0.000;0.000;2022-07-23T08:46:04;8.10;;;7.40;;
66707;SDS011;53622;0.000;0.000;2022-07-23T08:48:35;8.60;;;7.15;;
66707;SDS011;53622;0.000;0.000;2022-07-23T08:51:06;7.95;;;7.25;;
66707;SDS011;53622;0.000;0.000;2022-07-23T08:53:37;8.85;;;7.28;;
66707;SDS011;53622;0.000;0.000;2022-07-23T08:56:09;8.80;;;7.70;;
66707;SDS011;53622;0.000;0.000;2022-07-23T08:58:38;8.32;;;7.13;;
66707;SDS011;53622;0.000;0.000;2022-07-23T09:01:09;8.45;;;7.20;;
66707;SDS011;53622;0.000;0.000;2022-07-23T09:03:38;10.07;;;7.95;;
66707;SDS011;53622;0.000;0.000;2022-07-23T09:06:08;8.00;;;6.85;;
66707;SDS011;53622;0.000;0.000;2022-07-23T09:08:37;8.85;;;7.07;;
66707;SDS011;53622;0.000;0.000;2022-07-23T09:11:08;8.00;;;7.20;;
66707;SDS011;53622;0.000;0.000;2022-07-23T09:13:39;8.32;;;7.50;;
66707;SDS011;53622;0.000;0.000;2022-07-23T09:16:13;7.90;;;7.20;;
66707;SDS011;53622;0.000;0.000;2022-07-23T09:18:44;8.32;;;7.13;;
66707;SDS011;53622;0.000;0.000;2022-07-23T09:21:17;8.25;;;7.45;;
66707;SDS011;53622;0.000;0.000;2022-07-23T09:23:50;7.78;;;7.07;;
66707;SDS011;53622;0.000;0.000;2022-07-23T09:26:23;8.30;;;7.60;;
66707;SDS011;53622;0.000;0.000;2022-07-23T09:29:01;7.85;;;7.22;;
66707;SDS011;53622;0.000;0.000;2022-07-23T09:31:43;7.78;;;7.00;;
66707;SDS011;53622;0.000;0.000;2022-07-23T09:34:19;8.20;;;7.50;;
66707;SDS011;53622;0.000;0.000;2022-07-23T09:36:51;8.13;;;7.07;;
66707;SDS011;53622;0.000;0.000;2022-07-23T09:39:24;7.53;;;6.57;;
66707;SDS011;53622;0.000;0.000;2022-07-23T09:41:56;7.65;;;6.88;;
66707;SDS011;53622;0.000;0.000;2022-07-23T09:44:26;7.78;;;7.00;;
66707;SDS011;53622;0.000;0.000;2022-07-23T09:46:59;10.15;;;7.22;;
66707;SDS011;53622;0.000;0.000;2022-07-23T09:49:29;7.50;;;6.90;;
66707;SDS011;53622;0.000;0.000;2022-07-23T09:51:59;8.48;;;6.88;;
66707;SDS011;53622;0.000;0.000;2022-07-23T09:54:31;8.55;;;7.07;;
66707;SDS011;53622;0.000;0.000;2022-07-23T09:57:04;7.30;;;6.60;;
66707;SDS011;53622;0.000;0.000;2022-07-23T09:59:36;8.45;;;7.25;;
66707;SDS011;53622;0.000;0.000;2022-07-23T10:02:10;7.70;;;6.90;;
66707;SDS011;53622;0.000;0.000;2022-07-23T10:04:59;8.10;;;7.38;;
66707;SDS011;53622;0.000;0.000;2022-07-23T10:07:49;6.97;;;6.28;;
66707;SDS011;53622;0.000;0.000;2022-07-23T10:10:38;7.25;;;6.65;;
66707;SDS011;53622;0.000;0.000;2022-07-23T10:13:23;7.03;;;6.43;;
66707;SDS011;53622;0.000;0.000;2022-07-23T10:16:07;7.28;;;6.65;;
66707;SDS011;53622;0.000;0.000;2022-07-23T10:18:38;7.78;;;6.97;;
66707;SDS011;53622;0.000;0.000;2022-07-23T10:21:11;7.25;;;6.60;;
66707;SDS011;53622;0.000;0.000;2022-07-23T10:23:47;7.40;;;6.70;;
66707;SDS011;53622;0.000;0.000;2022-07-23T10:26:32;9.32;;;6.70;;
66707;SDS011;53622;0.000;0.000;2022-07-23T10:29:09;10.80;;;6.82;;
66707;SDS011;53622;0.000;0.000;2022-07-23T10:31:50;14.32;;;7.63;;
66707;SDS011;53622;0.000;0.000;2022-07-23T10:34:35;9.20;;;7.32;;
66707;SDS011;53622;0.000;0.000;2022-07-23T10:37:12;10.38;;;7.93;;
66707;SDS011;53622;0.000;0.000;2022-07-23T10:39:48;11.13;;;7.43;;
66707;SDS011;53622;0.000;0.000;2022-07-23T10:42:38;12.68;;;8.07;;
66707;SDS011;53622;0.000;0.000;2022-07-23T10:48:13;9.10;;;8.27;;
66707;SDS011;53622;0.000;0.000;2022-07-23T10:53:55;9.52;;;8.00;;
66707;SDS011;53622;0.000;0.000;2022-07-23T10:59:30;9.40;;;8.18;;
66707;SDS011;53622;0.000;0.000;2022-07-23T11:04:50;12.13;;;10.88;;
66707;SDS011;53622;0.000;0.000;2022-07-23T11:07:22;11.55;;;10.27;;
66707;SDS011;53622;0.000;0.000;2022-07-23T11:09:52;10.40;;;9.50;;
66707;SDS011;53622;0.000;0.000;2022-07-23T11:12:34;10.90;;;9.70;;
66707;SDS011;53622;0.000;0.000;2022-07-23T11:15:05;11.07;;;9.30;;
66707;SDS011;53622;0.000;0.000;2022-07-23T11:17:37;9.95;;;8.73;;
66707;SDS011;53622;0.000;0.000;2022-07-23T11:20:18;9.98;;;8.55;;
66707;SDS011;53622;0.000;0.000;2022-07-23T11:22:51;9.30;;;8.35;;
66707;SDS011;53622;0.000;0.000;2022-07-23T11:25:30;9.35;;;8.40;;
66707;SDS011;53622;0.000;0.000;2022-07-23T11:28:14;9.30;;;8.40;;
66707;SDS011;53622;0.000;0.000;2022-07-23T11:30:44;9.05;;;8.25;;
66707;SDS011;53622;0.000;0.000;2022-07-23T11:33:15;9.48;;;8.57;;
66707;SDS011;53622;0.000;0.000;2022-07-23T11:35:47;8.98;;;8.27;;
66707;SDS011;53622;0.000;0.000;2022-07-23T11:38:31;9.77;;;8.40;;
66707;SDS011;53622;0.000;0.000;2022-07-23T11:41:01;8.93;;;8.23;;
66707;SDS011;53622;0.000;0.000;2022-07-23T11:43:30;9.60;;;8.70;;
66707;SDS011;53622;0.000;0.000;2022-07-23T11:45:59;9.32;;;8.00;;
66707;SDS011;53622;0.000;0.000;2022-07-23T11:48:29;9.43;;;8.50;;
66707;SDS011;53622;0.000;0.000;2022-07-23T11:51:06;11.43;;;8.52;;
66707;SDS011;53622;0.000;0.000;2022-07-23T11:53:37;9.95;;;9.05;;
66707;SDS011;53622;0.000;0.000;2022-07-23T11:56:07;9.38;;;8.48;;
66707;SDS011;53622;0.000;0.000;2022-07-23T11:58:38;9.38;;;8.52;;
66707;SDS011;53622;0.000;0.000;2022-07-23T12:01:22;9.80;;;8.90;;
66707;SDS011;53622;0.000;0.000;2022-07-23T12:03:52;9.10;;;8.05;;
66707;SDS011;53622;0.000;0.000;2022-07-23T12:06:21;10.00;;;8.57;;
66707;SDS011;53622;0.000;0.000;2022-07-23T12:08:52;9.85;;;8.93;;
66707;SDS011;53622;0.000;0.000;2022-07-23T12:11:22;9.70;;;8.80;;
66707;SDS011;53622;0.000;0.000;2022-07-23T12:13:55;10.60;;;9.23;;
66707;SDS011;53622;0.000;0.000;2022-07-23T12:16:25;9.50;;;8.60;;
66707;SDS011;53622;0.000;0.000;2022-07-23T12:18:55;9.32;;;8.35;;
66707;SDS011;53622;0.000;0.000;2022-07-23T12:21:25;10.32;;;9.18;;
66707;SDS011;53622;0.000;0.000;2022-07-23T12:24:06;9.60;;;8.77;;
66707;SDS011;53622;0.000;0.000;2022-07-23T12:26:36;9.70;;;8.82;;
66707;SDS011;53622;0.000;0.000;2022-07-23T12:29:06;9.25;;;8.40;;
66707;SDS011;53622;0.000;0.000;2022-07-23T12:31:36;9.27;;;8.48;;
66707;SDS011;53622;0.000;0.000;2022-07-23T12:34:13;9.70;;;8.82;;
66707;SDS011;53622;0.000;0.000;2022-07-23T12:36:42;9.82;;;8.93;;
66707;SDS011;53622;0.000;0.000;2022-07-23T12:39:22;9.52;;;8.73;;
66707;SDS011;53622;0.000;0.000;2022-07-23T12:41:59;8.90;;;8.10;;
66707;SDS011;53622;0.000;0.000;2022-07-23T12:44:29;10.70;;;9.27;;
66707;SDS011;53622;0.000;0.000;2022-07-23T12:47:05;9.15;;;8.25;;
66707;SDS011;53622;0.000;0.000;2022-07-23T12:49:35;9.77;;;8.85;;
66707;SDS011;53622;0.000;0.000;2022-07-23T12:52:14;9.18;;;8.48;;
66707;SDS011;53622;0.000;0.000;2022-07-23T12:54:49;8.60;;;7.90;;
66707;SDS011;53622;0.000;0.000;2022-07-23T12:57:19;9.02;;;8.32;;
66707;SDS011;53622;0.000;0.000;2022-07-23T13:00:16;9.35;;;8.50;;
66707;SDS011;53622;0.000;0.000;2022-07-23T13:02:49;10.40;;;8.55;;
66707;SDS011;53622;0.000;0.000;2022-07-23T13:05:19;9.18;;;8.18;;
66707;SDS011;53622;0.000;0.000;2022-07-23T13:07:48;8.93;;;8.00;;
66707;SDS011;53622;0.000;0.000;2022-07-23T13:10:20;8.63;;;7.82;;
66707;SDS011;53622;0.000;0.000;2022-07-23T13:12:50;9.00;;;8.27;;
66707;SDS011;53622;0.000;0.000;2022-07-23T13:15:19;9.13;;;7.70;;
66707;SDS011;53622;0.000;0.000;2022-07-23T13:17:50;8.70;;;7.57;;
66707;SDS011;53622;0.000;0.000;2022-07-23T13:20:21;9.38;;;8.18;;
66707;SDS011;53622;0.000;0.000;2022-07-23T13:22:51;8.48;;;7.68;;
66707;SDS011;53622;0.000;0.000;2022-07-23T13:25:22;9.10;;;7.10;;
66707;SDS011;53622;0.000;0.000;2022-07-23T13:27:52;7.90;;;7.28;;
66707;SDS011;53622;0.000;0.000;2022-07-23T13:30:21;12.45;;;7.72;;
66707;SDS011;53622;0.000;0.000;2022-07-23T13:32:51;8.45;;;7.60;;
66707;SDS011;53622;0.000;0.000;2022-07-23T13:35:26;7.63;;;6.80;;
66707;SDS011;53622;0.000;0.000;2022-07-23T13:37:59;10.63;;;7.32;;
66707;SDS011;53622;0.000;0.000;2022-07-23T13:40:30;8.88;;;7.32;;
66707;SDS011;53622;0.000;0.000;2022-07-23T13:42:59;9.85;;;7.70;;
66707;SDS011;53622;0.000;0.000;2022-07-23T13:45:34;9.38;;;7.43;;
66707;SDS011;53622;0.000;0.000;2022-07-23T13:48:04;8.10;;;7.30;;
66707;SDS011;53622;0.000;0.000;2022-07-23T13:50:34;8.10;;;7.10;;
66707;SDS011;53622;0.000;0.000;2022-07-23T13:53:06;10.45;;;7.07;;
66707;SDS011;53622;0.000;0.000;2022-07-23T13:55:39;8.98;;;7.22;;
66707;SDS011;53622;0.000;0.000;2022-07-23T13:58:15;8.27;;;7.47;;
66707;SDS011;53622;0.000;0.000;2022-07-23T14:00:50;7.75;;;7.05;;
66707;SDS011;53622;0.000;0.000;2022-07-23T14:03:21;8.30;;;7.25;;
66707;SDS011;53622;0.000;0.000;2022-07-23T14:05:52;9.75;;;7.35;;
66707;SDS011;53622;0.000;0.000;2022-07-23T14:08:22;10.48;;;7.47;;
66707;SDS011;53622;0.000;0.000;2022-07-23T14:10:53;11.88;;;6.90;;
66707;SDS011;53622;0.000;0.000;2022-07-23T14:13:42;9.63;;;7.28;;
66707;SDS011;53622;0.000;0.000;2022-07-23T14:16:12;12.35;;;7.15;;
66707;SDS011;53622;0.000;0.000;2022-07-23T14:18:42;15.55;;;7.97;;
66707;SDS011;53622;0.000;0.000;2022-07-23T14:21:12;10.52;;;7.35;;
66707;SDS011;53622;0.000;0.000;2022-07-23T14:23:42;8.23;;;7.30;;
66707;SDS011;53622;0.000;0.000;2022-07-23T14:26:13;9.07;;;7.25;;
66707;SDS011;53622;0.000;0.000;2022-07-23T14:28:43;13.30;;;6.75;;
66707;SDS011;53622;0.000;0.000;2022-07-23T14:31:15;10.50;;;7.03;;
66707;SDS011;53622;0.000;0.000;2022-07-23T14:33:47;8.65;;;7.25;;
66707;SDS011;53622;0.000;0.000;2022-07-23T14:36:20;12.40;;;7.68;;
66707;SDS011;53622;0.000;0.000;2022-07-23T14:38:49;12.80;;;7.10;;
66707;SDS011;53622;0.000;0.000;2022-07-23T14:41:20;11.95;;;7.55;;
66707;SDS011;53622;0.000;0.000;2022-07-23T14:43:53;12.95;;;6.95;;
66707;SDS011;53622;0.000;0.000;2022-07-23T14:46:23;11.93;;;6.75;;
66707;SDS011;53622;0.000;0.000;2022-07-23T14:48:52;12.38;;;6.95;;
66707;SDS011;53622;0.000;0.000;2022-07-23T14:51:21;8.13;;;7.40;;
66707;SDS011;53622;0.000;0.000;2022-07-23T14:53:53;10.02;;;7.13;;
66707;SDS011;53622;0.000;0.000;2022-07-23T14:56:24;12.13;;;7.30;;
66707;SDS011;53622;0.000;0.000;2022-07-23T14:58:53;7.95;;;7.25;;
66707;SDS011;53622;0.000;0.000;2022-07-23T15:01:23;8.15;;;7.35;;
66707;SDS011;53622;0.000;0.000;2022-07-23T15:03:52;9.18;;;7.68;;
66707;SDS011;53622;0.000;0.000;2022-07-23T15:06:25;9.68;;;7.50;;
66707;SDS011;53622;0.000;0.000;2022-07-23T15:08:55;8.35;;;7.55;;
66707;SDS011;53622;0.000;0.000;2022-07-23T15:11:26;10.60;;;8.40;;
66707;SDS011;53622;0.000;0.000;2022-07-23T15:14:00;11.07;;;7.95;;
66707;SDS011;53622;0.000;0.000;2022-07-23T15:16:30;10.27;;;8.05;;
66707;SDS011;53622;0.000;0.000;2022-07-23T15:19:00;9.98;;;8.70;;
66707;SDS011;53622;0.000;0.000;2022-07-23T15:21:31;8.93;;;8.02;;
66707;SDS011;53622;0.000;0.000;2022-07-23T15:24:01;11.85;;;8.23;;
66707;SDS011;53622;0.000;0.000;2022-07-23T15:26:32;10.18;;;7.63;;
66707;SDS011;53622;0.000;0.000;2022-07-23T15:29:01;11.25;;;8.50;;
66707;SDS011;53622;0.000;0.000;2022-07-23T15:31:33;8.73;;;8.00;;
66707;SDS011;53622;0.000;0.000;2022-07-23T15:34:03;9.18;;;8.38;;
66707;SDS011;53622;0.000;0.000;2022-07-23T15:36:33;9.15;;;8.20;;
66707;SDS011;53622;0.000;0.000;2022-07-23T15:39:03;10.32;;;7.50;;